Time,TemperatureF,DewpointF,PressureIn,WindDirection,WindDirectionDegrees,WindSpeedMPH,WindSpeedGustMPH,Humidity,HourlyPrecipIn,Conditions,Clouds,dailyrainin,SoftwareType,DateUTC
2013-05-12 00:01:00,58.0,54.0,30.14,North,5,1.0,3.0,87,0.00,,,0.00,,2013-05-12 07:01:00,
2013-05-12 00:11:00,58.0,54.0,30.14,North,5,1.0,3.0,87,0.00,,,0.00,,2013-05-12 07:11:00,
2013-05-12 00:21:00,57.0,53.0,30.14,SSW,198,0.0,4.0,87,0.00,,,0.00,,2013-05-12 07:21:00,
2013-05-12 00:32:00,58.0,54.0,30.14,WNW,298,0.0,3.0,88,0.00,,,0.00,,2013-05-12 07:32:00,
2013-05-12 00:42:00,58.0,54.0,30.14,WNW,298,0.0,3.0,88,0.00,,,0.00,,2013-05-12 07:42:00,
2013-05-12 00:52:00,58.0,54.0,30.14,NW,314,1.0,3.0,88,0.00,,,0.00,,2013-05-12 07:52:00,
2013-05-12 01:02:00,59.0,56.0,30.15,NNW,331,0.0,4.0,89,0.00,,,0.00,,2013-05-12 08:02:00,
2013-05-12 01:11:00,59.0,56.0,30.15,NNW,331,0.0,4.0,89,0.00,,,0.00,,2013-05-12 08:11:00,
2013-05-12 01:21:00,59.0,55.0,30.14,NW,320,0.0,3.0,87,0.00,,,0.00,,2013-05-12 08:21:00,
2013-05-12 01:32:00,58.0,54.0,30.14,NW,323,0.0,3.0,88,0.00,,,0.00,,2013-05-12 08:32:00,
2013-05-12 01:41:00,58.0,54.0,30.14,NW,323,0.0,3.0,88,0.00,,,0.00,,2013-05-12 08:41:00,
2013-05-12 01:52:00,57.0,54.0,30.15,NNW,329,1.0,4.0,89,0.00,,,0.00,,2013-05-12 08:52:00,
2013-05-12 02:01:00,57.0,54.0,30.15,NNW,340,2.0,4.0,90,0.00,,,0.00,,2013-05-12 09:01:00,
2013-05-12 02:11:00,57.0,54.0,30.15,NNW,340,2.0,4.0,90,0.00,,,0.00,,2013-05-12 09:11:00,
2013-05-12 02:21:00,58.0,55.0,30.14,NNW,342,0.0,4.0,90,0.00,,,0.00,,2013-05-12 09:21:00,
2013-05-12 02:32:00,57.0,54.0,30.14,NNW,342,0.0,1.0,89,0.00,,,0.00,,2013-05-12 09:32:00,
2013-05-12 02:42:00,57.0,54.0,30.14,NNW,342,0.0,1.0,89,0.00,,,0.00,,2013-05-12 09:42:00,
2013-05-12 02:52:00,56.0,53.0,30.14,NNW,342,0.0,1.0,90,0.00,,,0.00,,2013-05-12 09:52:00,
2013-05-12 03:02:00,56.0,53.0,30.13,NNW,342,1.0,3.0,91,0.00,,,0.00,,2013-05-12 10:02:00,
2013-05-12 03:12:00,56.0,53.0,30.13,NNW,342,1.0,3.0,91,0.00,,,0.00,,2013-05-12 10:12:00,
2013-05-12 03:22:00,56.0,53.0,30.13,NNW,348,0.0,2.0,91,0.00,,,0.00,,2013-05-12 10:22:00,
2013-05-12 03:33:00,56.0,53.0,30.13,NNW,348,0.0,2.0,91,0.00,,,0.00,,2013-05-12 10:33:00,
2013-05-12 03:42:00,56.0,53.0,30.13,NNW,348,0.0,2.0,91,0.00,,,0.00,,2013-05-12 10:42:00,
2013-05-12 03:52:00,56.0,54.0,30.13,NNW,348,0.0,2.0,92,0.00,,,0.00,,2013-05-12 10:52:00,
2013-05-12 04:02:00,57.0,54.0,30.14,WNW,284,1.0,4.0,91,0.00,,,0.00,,2013-05-12 11:02:00,
2013-05-12 04:12:00,57.0,54.0,30.14,WNW,284,1.0,4.0,91,0.00,,,0.00,,2013-05-12 11:12:00,
2013-05-12 04:21:00,57.0,54.0,30.14,East,79,0.0,5.0,91,0.00,,,0.00,,2013-05-12 11:21:00,
2013-05-12 04:32:00,57.0,54.0,30.13,NNW,336,1.0,7.0,91,0.00,,,0.00,,2013-05-12 11:32:00,
2013-05-12 04:42:00,57.0,54.0,30.13,NNW,336,1.0,7.0,91,0.00,,,0.00,,2013-05-12 11:42:00,
2013-05-12 04:51:00,57.0,54.0,30.14,West,276,2.0,6.0,90,0.00,,,0.00,,2013-05-12 11:51:00,
2013-05-12 05:01:00,57.0,54.0,30.14,SSW,204,0.0,3.0,90,0.00,,,0.00,,2013-05-12 12:01:00,
2013-05-12 05:11:00,57.0,54.0,30.14,SSW,204,0.0,3.0,90,0.00,,,0.00,,2013-05-12 12:11:00,
2013-05-12 05:21:00,57.0,54.0,30.15,West,275,8.0,12.0,89,0.00,,,0.00,,2013-05-12 12:21:00,
2013-05-12 05:32:00,57.0,54.0,30.16,SW,229,2.0,10.0,90,0.00,,,0.00,,2013-05-12 12:32:00,
2013-05-12 05:41:00,57.0,54.0,30.16,SW,229,2.0,10.0,90,0.00,,,0.00,,2013-05-12 12:41:00,
2013-05-12 05:51:00,57.0,54.0,30.15,SSE,161,2.0,8.0,90,0.00,,,0.00,,2013-05-12 12:51:00,
2013-05-12 06:01:00,57.0,54.0,30.15,SW,224,2.0,5.0,89,0.00,,,0.00,,2013-05-12 13:01:00,
2013-05-12 06:11:00,57.0,54.0,30.15,SW,224,2.0,5.0,89,0.00,,,0.00,,2013-05-12 13:11:00,
2013-05-12 06:21:00,57.0,54.0,30.15,SW,224,2.0,5.0,89,0.00,,,0.00,,2013-05-12 13:21:00,
2013-05-12 06:31:00,57.0,54.0,30.15,NW,321,1.0,8.0,89,0.00,,,0.00,,2013-05-12 13:31:00,
2013-05-12 06:42:00,57.0,54.0,30.15,NW,321,1.0,8.0,89,0.00,,,0.00,,2013-05-12 13:42:00,
2013-05-12 06:52:00,57.0,54.0,30.15,WNW,284,2.0,5.0,89,0.00,,,0.00,,2013-05-12 13:52:00,
2013-05-12 07:01:00,56.0,53.0,30.16,WSW,246,3.0,7.0,90,0.00,,,0.00,,2013-05-12 14:01:00,
2013-05-12 07:11:00,56.0,53.0,30.16,WSW,246,3.0,7.0,90,0.00,,,0.00,,2013-05-12 14:11:00,
2013-05-12 07:21:00,56.0,53.0,30.16,West,267,2.0,6.0,91,0.00,,,0.00,,2013-05-12 14:21:00,
2013-05-12 07:31:00,56.0,54.0,30.16,SSE,152,2.0,5.0,92,0.00,,,0.00,,2013-05-12 14:31:00,
2013-05-12 07:42:00,56.0,54.0,30.16,SE,134,0.0,7.0,92,0.00,,,0.00,,2013-05-12 14:42:00,
2013-05-12 07:51:00,56.0,54.0,30.16,SE,134,0.0,7.0,92,0.00,,,0.00,,2013-05-12 14:51:00,
2013-05-12 08:01:00,57.0,54.0,30.16,East,97,4.0,10.0,90,0.00,,,0.00,,2013-05-12 15:01:00,
2013-05-12 08:11:00,57.0,54.0,30.16,East,97,4.0,10.0,90,0.00,,,0.00,,2013-05-12 15:11:00,
2013-05-12 08:21:00,59.0,55.0,30.16,SSW,204,0.0,6.0,87,0.00,,,0.00,,2013-05-12 15:21:00,
2013-05-12 08:33:00,58.0,54.0,30.16,West,267,1.0,4.0,85,0.00,,,0.00,,2013-05-12 15:33:00,
2013-05-12 08:42:00,58.0,54.0,30.16,West,267,1.0,4.0,85,0.00,,,0.00,,2013-05-12 15:42:00,
2013-05-12 08:52:00,57.0,54.0,30.16,WNW,282,0.0,3.0,89,0.00,,,0.00,,2013-05-12 15:52:00,
2013-05-12 09:02:00,58.0,55.0,30.16,WNW,284,0.0,4.0,89,0.00,,,0.00,,2013-05-12 16:02:00,
2013-05-12 09:12:00,58.0,55.0,30.16,WNW,284,0.0,4.0,89,0.00,,,0.00,,2013-05-12 16:12:00,
2013-05-12 09:23:00,60.0,55.0,30.16,SW,217,3.0,7.0,85,0.00,,,0.00,,2013-05-12 16:23:00,
2013-05-12 09:32:00,58.0,53.0,30.17,WNW,301,3.0,6.0,83,0.00,,,0.00,,2013-05-12 16:32:00,
2013-05-12 09:42:00,58.0,53.0,30.17,WNW,301,3.0,6.0,83,0.00,,,0.00,,2013-05-12 16:42:00,
2013-05-12 09:52:00,59.0,55.0,30.17,WSW,238,1.0,5.0,86,0.00,,,0.00,,2013-05-12 16:52:00,
2013-05-12 10:01:00,60.0,55.0,30.17,WSW,246,1.0,3.0,83,0.00,,,0.00,,2013-05-12 17:01:00,
2013-05-12 10:11:00,60.0,55.0,30.17,WSW,246,1.0,3.0,83,0.00,,,0.00,,2013-05-12 17:11:00,
2013-05-12 10:22:00,61.0,55.0,30.16,West,273,2.0,6.0,80,0.00,,,0.00,,2013-05-12 17:22:00,
2013-05-12 10:32:00,59.0,54.0,30.16,West,281,3.0,7.0,83,0.00,,,0.00,,2013-05-12 17:32:00,
2013-05-12 10:42:00,59.0,54.0,30.16,West,281,3.0,7.0,83,0.00,,,0.00,,2013-05-12 17:42:00,
2013-05-12 10:52:00,60.0,56.0,30.16,West,261,3.0,7.0,88,0.00,,,0.00,,2013-05-12 17:52:00,
2013-05-12 11:01:00,63.0,58.0,30.16,West,265,3.0,6.0,83,0.00,,,0.00,,2013-05-12 18:01:00,
2013-05-12 11:12:00,63.0,58.0,30.16,West,265,3.0,6.0,83,0.00,,,0.00,,2013-05-12 18:12:00,
2013-05-12 11:22:00,63.0,56.0,30.17,SE,139,3.0,8.0,79,0.00,,,0.00,,2013-05-12 18:22:00,
2013-05-12 11:31:00,61.0,55.0,30.17,West,265,2.0,8.0,82,0.00,,,0.00,,2013-05-12 18:31:00,
2013-05-12 11:41:00,61.0,55.0,30.17,West,265,2.0,8.0,82,0.00,,,0.00,,2013-05-12 18:41:00,
2013-05-12 11:51:00,62.0,56.0,30.18,WSW,250,2.0,8.0,82,0.00,,,0.00,,2013-05-12 18:51:00,
2013-05-12 12:01:00,63.0,56.0,30.18,SSW,192,3.0,7.0,78,0.00,,,0.00,,2013-05-12 19:01:00,
2013-05-12 12:11:00,63.0,56.0,30.18,SSW,192,3.0,7.0,78,0.00,,,0.00,,2013-05-12 19:11:00,
2013-05-12 12:21:00,65.0,57.0,30.18,WSW,247,3.0,9.0,76,0.00,,,0.00,,2013-05-12 19:21:00,
2013-05-12 12:32:00,65.0,56.0,30.19,SSW,196,4.0,9.0,74,0.00,,,0.00,,2013-05-12 19:32:00,
2013-05-12 12:41:00,65.0,56.0,30.19,SSW,196,4.0,9.0,74,0.00,,,0.00,,2013-05-12 19:41:00,
2013-05-12 12:52:00,65.0,56.0,30.18,SSW,212,4.0,15.0,74,0.00,,,0.00,,2013-05-12 19:52:00,
2013-05-12 13:02:00,64.0,56.0,30.19,SSW,205,5.0,15.0,75,0.00,,,0.00,,2013-05-12 20:02:00,
2013-05-12 13:11:00,64.0,56.0,30.19,SSW,205,5.0,15.0,75,0.00,,,0.00,,2013-05-12 20:11:00,
2013-05-12 13:21:00,61.0,54.0,30.19,West,267,4.0,10.0,77,0.00,,,0.00,,2013-05-12 20:21:00,
2013-05-12 13:32:00,58.0,53.0,30.19,SSW,192,2.0,7.0,83,0.00,,,0.00,,2013-05-12 20:32:00,
2013-05-12 13:41:00,58.0,53.0,30.19,SSW,192,2.0,7.0,83,0.00,,,0.00,,2013-05-12 20:41:00,
2013-05-12 13:51:00,62.0,56.0,30.19,West,264,3.0,9.0,82,0.00,,,0.00,,2013-05-12 20:51:00,
2013-05-12 14:01:00,63.0,56.0,30.19,SW,222,3.0,9.0,77,0.00,,,0.00,,2013-05-12 21:01:00,
2013-05-12 14:11:00,63.0,56.0,30.19,SW,222,3.0,9.0,77,0.00,,,0.00,,2013-05-12 21:11:00,
2013-05-12 14:21:00,63.0,56.0,30.19,SSW,200,3.0,9.0,78,0.00,,,0.00,,2013-05-12 21:21:00,
2013-05-12 14:33:00,62.0,55.0,30.19,West,264,3.0,14.0,79,0.00,,,0.00,,2013-05-12 21:33:00,
2013-05-12 14:42:00,62.0,55.0,30.19,West,264,3.0,14.0,79,0.00,,,0.00,,2013-05-12 21:42:00,
2013-05-12 14:52:00,62.0,55.0,30.20,SW,225,4.0,9.0,79,0.00,,,0.00,,2013-05-12 21:52:00,
2013-05-12 15:02:00,60.0,54.0,30.20,West,269,5.0,11.0,80,0.00,,,0.00,,2013-05-12 22:02:00,
2013-05-12 15:12:00,60.0,54.0,30.20,West,269,5.0,11.0,80,0.00,,,0.00,,2013-05-12 22:12:00,
2013-05-12 15:22:00,61.0,55.0,30.19,West,261,4.0,7.0,80,0.00,,,0.00,,2013-05-12 22:22:00,
2013-05-12 15:32:00,61.0,55.0,30.19,SW,221,3.0,8.0,80,0.00,,,0.00,,2013-05-12 22:32:00,
2013-05-12 15:42:00,61.0,55.0,30.19,SW,221,3.0,8.0,80,0.00,,,0.00,,2013-05-12 22:42:00,
2013-05-12 15:52:00,61.0,55.0,30.19,West,274,3.0,10.0,81,0.00,,,0.00,,2013-05-12 22:52:00,
2013-05-12 16:02:00,60.0,54.0,30.19,SW,229,5.0,13.0,82,0.00,,,0.00,,2013-05-12 23:02:00,
2013-05-12 16:11:00,60.0,54.0,30.19,SW,229,5.0,13.0,82,0.00,,,0.00,,2013-05-12 23:11:00,
2013-05-12 16:22:00,59.0,54.0,30.18,SW,216,4.0,8.0,84,0.00,,,0.00,,2013-05-12 23:22:00,
2013-05-12 16:32:00,59.0,54.0,30.17,SSE,159,3.0,6.0,84,0.00,,,0.00,,2013-05-12 23:32:00,
2013-05-12 16:42:00,59.0,54.0,30.17,SSE,159,3.0,6.0,84,0.00,,,0.00,,2013-05-12 23:42:00,
2013-05-12 16:51:00,59.0,54.0,30.17,SSW,192,3.0,8.0,84,0.00,,,0.00,,2013-05-12 23:51:00,
2013-05-12 17:01:00,58.0,54.0,30.17,WSW,251,2.0,7.0,86,0.00,,,0.00,,2013-05-13 00:01:00,
2013-05-12 17:11:00,58.0,54.0,30.17,WSW,251,2.0,7.0,86,0.00,,,0.00,,2013-05-13 00:11:00,
2013-05-12 17:21:00,58.0,54.0,30.17,SSW,193,5.0,9.0,87,0.00,,,0.00,,2013-05-13 00:21:00,
2013-05-12 17:32:00,58.0,54.0,30.17,SSW,193,3.0,11.0,87,0.00,,,0.00,,2013-05-13 00:32:00,
2013-05-12 17:41:00,58.0,54.0,30.17,SSW,193,3.0,11.0,87,0.00,,,0.00,,2013-05-13 00:41:00,
2013-05-12 17:51:00,58.0,54.0,30.16,SW,232,4.0,8.0,88,0.00,,,0.00,,2013-05-13 00:51:00,
2013-05-12 18:01:00,58.0,55.0,30.16,South,173,0.0,7.0,90,0.00,,,0.00,,2013-05-13 01:01:00,
2013-05-12 18:11:00,58.0,55.0,30.16,South,173,0.0,7.0,90,0.00,,,0.00,,2013-05-13 01:11:00,
2013-05-12 18:21:00,58.0,55.0,30.15,SSW,197,4.0,9.0,90,0.01,,,0.01,,2013-05-13 01:21:00,
2013-05-12 18:31:00,58.0,55.0,30.14,SE,143,3.0,9.0,90,0.01,,,0.01,,2013-05-13 01:31:00,
2013-05-12 18:41:00,58.0,55.0,30.14,SE,143,3.0,9.0,90,0.01,,,0.01,,2013-05-13 01:41:00,
2013-05-12 18:52:00,58.0,55.0,30.14,SE,125,1.0,8.0,89,0.01,,,0.01,,2013-05-13 01:52:00,
2013-05-12 19:01:00,58.0,55.0,30.14,ESE,112,4.0,8.0,89,0.01,,,0.01,,2013-05-13 02:01:00,
2013-05-12 19:11:00,58.0,55.0,30.14,ESE,112,4.0,8.0,89,0.01,,,0.01,,2013-05-13 02:11:00,
2013-05-12 19:21:00,57.0,54.0,30.13,South,186,2.0,8.0,90,0.00,,,0.01,,2013-05-13 02:21:00,
2013-05-12 19:31:00,57.0,54.0,30.14,East,81,2.0,7.0,91,0.00,,,0.01,,2013-05-13 02:31:00,
2013-05-12 19:41:00,57.0,54.0,30.14,East,81,2.0,7.0,91,0.00,,,0.01,,2013-05-13 02:41:00,
2013-05-12 19:51:00,57.0,54.0,30.13,SSW,199,3.0,8.0,91,0.01,,,0.02,,2013-05-13 02:51:00,
2013-05-12 20:01:00,57.0,55.0,30.12,SE,136,2.0,8.0,92,0.01,,,0.02,,2013-05-13 03:01:00,
2013-05-12 20:11:00,57.0,55.0,30.12,SE,136,2.0,8.0,92,0.01,,,0.02,,2013-05-13 03:11:00,
2013-05-12 20:21:00,57.0,55.0,30.13,SSE,161,3.0,6.0,92,0.01,,,0.02,,2013-05-13 03:21:00,
2013-05-12 20:32:00,57.0,55.0,30.13,SE,135,3.0,8.0,92,0.02,,,0.03,,2013-05-13 03:32:00,
2013-05-12 20:42:00,57.0,55.0,30.13,SE,135,3.0,8.0,92,0.02,,,0.03,,2013-05-13 03:42:00,
2013-05-12 20:52:00,57.0,55.0,30.13,SSW,205,3.0,8.0,92,0.02,,,0.04,,2013-05-13 03:52:00,
2013-05-12 21:02:00,57.0,55.0,30.13,West,259,5.0,9.0,93,0.02,,,0.04,,2013-05-13 04:02:00,
2013-05-12 21:12:00,57.0,55.0,30.13,West,259,5.0,9.0,93,0.02,,,0.04,,2013-05-13 04:12:00,
2013-05-12 21:22:00,57.0,55.0,30.13,SSE,167,0.0,7.0,93,0.03,,,0.05,,2013-05-13 04:22:00,
2013-05-12 21:32:00,57.0,55.0,30.13,South,180,3.0,7.0,93,0.02,,,0.05,,2013-05-13 04:32:00,
2013-05-12 21:41:00,57.0,55.0,30.13,South,180,3.0,7.0,93,0.02,,,0.05,,2013-05-13 04:41:00,
2013-05-12 21:52:00,57.0,55.0,30.14,SSE,163,1.0,11.0,93,0.01,,,0.05,,2013-05-13 04:52:00,
2013-05-12 22:02:00,57.0,55.0,30.13,SSE,167,1.0,8.0,94,0.01,,,0.05,,2013-05-13 05:02:00,
2013-05-12 22:11:00,57.0,55.0,30.13,SSE,167,1.0,8.0,94,0.01,,,0.05,,2013-05-13 05:11:00,
2013-05-12 22:21:00,57.0,55.0,30.14,SE,132,1.0,7.0,94,0.00,,,0.05,,2013-05-13 05:21:00,
2013-05-12 22:32:00,57.0,55.0,30.14,West,277,0.0,8.0,94,0.00,,,0.05,,2013-05-13 05:32:00,
2013-05-12 22:42:00,57.0,55.0,30.14,West,277,0.0,8.0,94,0.00,,,0.05,,2013-05-13 05:42:00,
2013-05-12 22:51:00,56.0,54.0,30.15,WSW,250,1.0,6.0,94,0.00,,,0.05,,2013-05-13 05:51:00,
2013-05-12 23:01:00,56.0,54.0,30.14,South,188,2.0,5.0,94,0.00,,,0.05,,2013-05-13 06:01:00,
2013-05-12 23:11:00,56.0,54.0,30.14,South,188,2.0,5.0,94,0.00,,,0.05,,2013-05-13 06:11:00,
2013-05-12 23:21:00,56.0,54.0,30.14,SSW,194,1.0,8.0,94,0.00,,,0.05,,2013-05-13 06:21:00,
2013-05-12 23:31:00,56.0,54.0,30.14,South,190,1.0,5.0,94,0.00,,,0.05,,2013-05-13 06:31:00,
2013-05-12 23:42:00,56.0,54.0,30.14,South,190,1.0,5.0,94,0.00,,,0.05,,2013-05-13 06:42:00,
2013-05-12 23:52:00,56.0,54.0,30.14,SSW,209,0.0,6.0,94,0.00,,,0.05,,2013-05-13 06:52:00,